sensor_id;sensor_type;location;lat;lon;timestamp;temperature;humidity
80274;DHT22;69576;51.902;-8.462;2023-04-23T00:01:05;13.50;65.90
80274;DHT22;69576;51.902;-8.462;2023-04-23T00:03:34;13.50;65.90
80274;DHT22;69576;51.902;-8.462;2023-04-23T00:06:07;13.40;65.90
80274;DHT22;69576;51.902;-8.462;2023-04-23T00:08:34;13.40;65.80
80274;DHT22;69576;51.902;-8.462;2023-04-23T00:11:02;13.40;66.10
80274;DHT22;69576;51.902;-8.462;2023-04-23T00:13:28;13.30;66.00
80274;DHT22;69576;51.902;-8.462;2023-04-23T00:15:55;13.40;66.10
80274;DHT22;69576;51.902;-8.462;2023-04-23T00:18:23;13.40;66.00
80274;DHT22;69576;51.902;-8.462;2023-04-23T00:20:49;13.30;66.00
80274;DHT22;69576;51.902;-8.462;2023-04-23T00:23:15;13.30;66.00
80274;DHT22;69576;51.902;-8.462;2023-04-23T00:25:40;13.30;66.00
80274;DHT22;69576;51.902;-8.462;2023-04-23T00:28:06;13.30;66.10
80274;DHT22;69576;51.902;-8.462;2023-04-23T00:30:32;13.30;66.10
80274;DHT22;69576;51.902;-8.462;2023-04-23T00:33:00;13.30;66.00
80274;DHT22;69576;51.902;-8.462;2023-04-23T00:35:26;13.30;66.10
80274;DHT22;69576;51.902;-8.462;2023-04-23T00:37:54;13.30;66.10
80274;DHT22;69576;51.902;-8.462;2023-04-23T00:40:20;13.30;66.20
80274;DHT22;69576;51.902;-8.462;2023-04-23T00:42:48;13.30;66.20
80274;DHT22;69576;51.902;-8.462;2023-04-23T00:45:18;13.30;66.10
80274;DHT22;69576;51.902;-8.462;2023-04-23T00:47:45;13.30;66.40
80274;DHT22;69576;51.902;-8.462;2023-04-23T00:50:14;13.30;66.40
80274;DHT22;69576;51.902;-8.462;2023-04-23T00:52:39;13.30;66.50
80274;DHT22;69576;51.902;-8.462;2023-04-23T00:55:06;13.30;66.50
80274;DHT22;69576;51.902;-8.462;2023-04-23T00:57:35;13.30;66.50
80274;DHT22;69576;51.902;-8.462;2023-04-23T01:00:03;13.30;66.50
80274;DHT22;69576;51.902;-8.462;2023-04-23T01:02:30;13.30;66.50
80274;DHT22;69576;51.902;-8.462;2023-04-23T01:04:57;13.30;66.60
80274;DHT22;69576;51.902;-8.462;2023-04-23T01:07:24;13.30;66.60
80274;DHT22;69576;51.902;-8.462;2023-04-23T01:09:51;13.30;66.50
80274;DHT22;69576;51.902;-8.462;2023-04-23T01:12:18;13.30;66.50
80274;DHT22;69576;51.902;-8.462;2023-04-23T01:14:46;13.30;66.50
80274;DHT22;69576;51.902;-8.462;2023-04-23T01:17:12;13.30;66.50
80274;DHT22;69576;51.902;-8.462;2023-04-23T01:19:39;13.30;66.50
80274;DHT22;69576;51.902;-8.462;2023-04-23T01:22:11;13.30;66.60
80274;DHT22;69576;51.902;-8.462;2023-04-23T01:24:40;13.30;66.60
80274;DHT22;69576;51.902;-8.462;2023-04-23T01:27:07;13.30;66.10
80274;DHT22;69576;51.902;-8.462;2023-04-23T01:29:38;13.30;66.20
80274;DHT22;69576;51.902;-8.462;2023-04-23T01:32:06;13.30;66.50
80274;DHT22;69576;51.902;-8.462;2023-04-23T01:34:32;13.20;66.20
80274;DHT22;69576;51.902;-8.462;2023-04-23T01:36:59;13.20;66.50
80274;DHT22;69576;51.902;-8.462;2023-04-23T01:39:29;13.20;66.30
80274;DHT22;69576;51.902;-8.462;2023-04-23T01:41:57;13.10;66.10
80274;DHT22;69576;51.902;-8.462;2023-04-23T01:44:23;13.10;66.30
80274;DHT22;69576;51.902;-8.462;2023-04-23T01:46:52;13.10;66.30
80274;DHT22;69576;51.902;-8.462;2023-04-23T01:49:18;13.10;66.40
80274;DHT22;69576;51.902;-8.462;2023-04-23T01:51:43;13.10;66.30
80274;DHT22;69576;51.902;-8.462;2023-04-23T01:54:09;13.10;66.20
80274;DHT22;69576;51.902;-8.462;2023-04-23T01:56:35;13.10;66.40
80274;DHT22;69576;51.902;-8.462;2023-04-23T01:59:01;13.10;66.60
80274;DHT22;69576;51.902;-8.462;2023-04-23T02:01:42;13.10;66.80
80274;DHT22;69576;51.902;-8.462;2023-04-23T02:04:09;13.10;66.80
80274;DHT22;69576;51.902;-8.462;2023-04-23T02:06:35;13.10;66.60
80274;DHT22;69576;51.902;-8.462;2023-04-23T02:09:01;13.10;66.50
80274;DHT22;69576;51.902;-8.462;2023-04-23T02:11:27;13.10;66.20
80274;DHT22;69576;51.902;-8.462;2023-04-23T02:13:55;13.10;66.50
80274;DHT22;69576;51.902;-8.462;2023-04-23T02:16:23;13.10;66.40
80274;DHT22;69576;51.902;-8.462;2023-04-23T02:18:49;13.10;66.50
80274;DHT22;69576;51.902;-8.462;2023-04-23T02:21:15;13.10;66.50
80274;DHT22;69576;51.902;-8.462;2023-04-23T02:23:43;13.10;66.50
80274;DHT22;69576;51.902;-8.462;2023-04-23T02:26:09;13.10;66.60
80274;DHT22;69576;51.902;-8.462;2023-04-23T02:28:35;13.10;66.80
80274;DHT22;69576;51.902;-8.462;2023-04-23T02:31:00;13.10;66.70
80274;DHT22;69576;51.902;-8.462;2023-04-23T02:33:28;13.10;66.70
80274;DHT22;69576;51.902;-8.462;2023-04-23T02:35:56;13.00;66.70
80274;DHT22;69576;51.902;-8.462;2023-04-23T02:38:22;13.10;66.70
80274;DHT22;69576;51.902;-8.462;2023-04-23T02:40:48;13.10;67.00
80274;DHT22;69576;51.902;-8.462;2023-04-23T02:43:13;13.10;66.90
80274;DHT22;69576;51.902;-8.462;2023-04-23T02:45:39;13.10;66.90
80274;DHT22;69576;51.902;-8.462;2023-04-23T02:48:05;13.10;66.60
80274;DHT22;69576;51.902;-8.462;2023-04-23T02:50:31;13.00;66.70
80274;DHT22;69576;51.902;-8.462;2023-04-23T02:52:57;13.00;66.80
80274;DHT22;69576;51.902;-8.462;2023-04-23T02:55:22;13.00;66.70
80274;DHT22;69576;51.902;-8.462;2023-04-23T02:57:50;13.00;66.60
80274;DHT22;69576;51.902;-8.462;2023-04-23T03:00:16;13.00;66.70
80274;DHT22;69576;51.902;-8.462;2023-04-23T03:02:42;13.00;66.60
80274;DHT22;69576;51.902;-8.462;2023-04-23T03:05:08;13.00;66.90
80274;DHT22;69576;51.902;-8.462;2023-04-23T03:07:37;13.00;66.60
80274;DHT22;69576;51.902;-8.462;2023-04-23T03:10:05;13.00;66.70
80274;DHT22;69576;51.902;-8.462;2023-04-23T03:12:34;13.00;66.50
80274;DHT22;69576;51.902;-8.462;2023-04-23T03:15:02;13.00;66.70
80274;DHT22;69576;51.902;-8.462;2023-04-23T03:17:28;12.90;66.80
80274;DHT22;69576;51.902;-8.462;2023-04-23T03:19:54;12.90;67.00
80274;DHT22;69576;51.902;-8.462;2023-04-23T03:22:22;12.90;66.40
80274;DHT22;69576;51.902;-8.462;2023-04-23T03:24:48;12.90;67.00
80274;DHT22;69576;51.902;-8.462;2023-04-23T03:27:13;12.90;66.70
80274;DHT22;69576;51.902;-8.462;2023-04-23T03:29:41;12.90;67.00
80274;DHT22;69576;51.902;-8.462;2023-04-23T03:32:07;12.90;66.80
80274;DHT22;69576;51.902;-8.462;2023-04-23T03:34:33;12.90;67.10
80274;DHT22;69576;51.902;-8.462;2023-04-23T03:36:58;12.90;66.80
80274;DHT22;69576;51.902;-8.462;2023-04-23T03:39:24;12.90;66.60
80274;DHT22;69576;51.902;-8.462;2023-04-23T03:41:50;12.90;66.80
80274;DHT22;69576;51.902;-8.462;2023-04-23T03:44:16;12.90;66.80
80274;DHT22;69576;51.902;-8.462;2023-04-23T03:46:41;12.90;66.90
80274;DHT22;69576;51.902;-8.462;2023-04-23T03:49:07;12.90;66.90
80274;DHT22;69576;51.902;-8.462;2023-04-23T03:51:33;12.90;67.00
80274;DHT22;69576;51.902;-8.462;2023-04-23T03:54:01;12.90;67.20
80274;DHT22;69576;51.902;-8.462;2023-04-23T03:56:27;12.90;67.10
80274;DHT22;69576;51.902;-8.462;2023-04-23T03:58:52;12.90;67.10
80274;DHT22;69576;51.902;-8.462;2023-04-23T04:01:18;12.90;66.90
80274;DHT22;69576;51.902;-8.462;2023-04-23T04:03:46;13.00;66.90
80274;DHT22;69576;51.902;-8.462;2023-04-23T04:06:12;12.90;66.60
80274;DHT22;69576;51.902;-8.462;2023-04-23T04:08:37;12.90;66.60
80274;DHT22;69576;51.902;-8.462;2023-04-23T04:11:03;12.90;67.00
80274;DHT22;69576;51.902;-8.462;2023-04-23T04:13:29;12.90;66.80
80274;DHT22;69576;51.902;-8.462;2023-04-23T04:15:54;12.90;66.40
80274;DHT22;69576;51.902;-8.462;2023-04-23T04:18:20;12.90;66.90
80274;DHT22;69576;51.902;-8.462;2023-04-23T04:20:46;12.90;66.80
80274;DHT22;69576;51.902;-8.462;2023-04-23T04:23:16;12.90;67.10
80274;DHT22;69576;51.902;-8.462;2023-04-23T04:25:42;12.90;67.00
80274;DHT22;69576;51.902;-8.462;2023-04-23T04:28:07;12.90;67.10
80274;DHT22;69576;51.902;-8.462;2023-04-23T04:30:36;12.90;67.10
80274;DHT22;69576;51.902;-8.462;2023-04-23T04:33:03;12.90;66.70
80274;DHT22;69576;51.902;-8.462;2023-04-23T04:35:29;12.90;67.00
80274;DHT22;69576;51.902;-8.462;2023-04-23T04:37:57;12.90;67.00
80274;DHT22;69576;51.902;-8.462;2023-04-23T04:40:23;12.80;66.80
80274;DHT22;69576;51.902;-8.462;2023-04-23T04:42:51;12.80;66.50
80274;DHT22;69576;51.902;-8.462;2023-04-23T04:45:17;12.80;66.90
80274;DHT22;69576;51.902;-8.462;2023-04-23T04:47:43;12.80;66.90
80274;DHT22;69576;51.902;-8.462;2023-04-23T04:50:10;12.80;66.80
80274;DHT22;69576;51.902;-8.462;2023-04-23T04:52:36;12.80;67.00
80274;DHT22;69576;51.902;-8.462;2023-04-23T04:55:04;12.80;66.80
80274;DHT22;69576;51.902;-8.462;2023-04-23T04:57:31;12.80;66.90
80274;DHT22;69576;51.902;-8.462;2023-04-23T04:59:57;12.80;66.90
80274;DHT22;69576;51.902;-8.462;2023-04-23T05:02:23;12.80;67.00
80274;DHT22;69576;51.902;-8.462;2023-04-23T05:04:48;12.80;66.90
80274;DHT22;69576;51.902;-8.462;2023-04-23T05:07:14;12.80;66.80
80274;DHT22;69576;51.902;-8.462;2023-04-23T05:09:42;12.80;66.90
80274;DHT22;69576;51.902;-8.462;2023-04-23T05:12:08;12.80;66.90
80274;DHT22;69576;51.902;-8.462;2023-04-23T05:14:34;12.80;67.00
80274;DHT22;69576;51.902;-8.462;2023-04-23T05:17:00;12.80;67.10
80274;DHT22;69576;51.902;-8.462;2023-04-23T05:19:25;12.80;67.00
80274;DHT22;69576;51.902;-8.462;2023-04-23T05:21:51;12.80;67.20
80274;DHT22;69576;51.902;-8.462;2023-04-23T05:24:17;12.90;67.40
80274;DHT22;69576;51.902;-8.462;2023-04-23T05:26:43;12.90;66.90
80274;DHT22;69576;51.902;-8.462;2023-04-23T05:29:08;12.90;66.80
80274;DHT22;69576;51.902;-8.462;2023-04-23T05:31:34;12.90;66.80
80274;DHT22;69576;51.902;-8.462;2023-04-23T05:34:00;12.90;66.70
80274;DHT22;69576;51.902;-8.462;2023-04-23T05:36:28;12.90;66.70
80274;DHT22;69576;51.902;-8.462;2023-04-23T05:38:54;12.90;66.80
80274;DHT22;69576;51.902;-8.462;2023-04-23T05:41:20;12.90;66.80
80274;DHT22;69576;51.902;-8.462;2023-04-23T05:43:45;12.90;67.00
80274;DHT22;69576;51.902;-8.462;2023-04-23T05:46:11;12.90;66.80
80274;DHT22;69576;51.902;-8.462;2023-04-23T05:48:37;12.90;66.60
80274;DHT22;69576;51.902;-8.462;2023-04-23T05:51:05;12.80;66.70
80274;DHT22;69576;51.902;-8.462;2023-04-23T05:53:33;12.80;66.60
80274;DHT22;69576;51.902;-8.462;2023-04-23T05:55:59;12.80;66.80
80274;DHT22;69576;51.902;-8.462;2023-04-23T05:58:25;12.80;66.90
80274;DHT22;69576;51.902;-8.462;2023-04-23T06:00:50;12.80;66.80
80274;DHT22;69576;51.902;-8.462;2023-04-23T06:03:17;12.80;66.80
80274;DHT22;69576;51.902;-8.462;2023-04-23T06:05:43;12.80;66.70
80274;DHT22;69576;51.902;-8.462;2023-04-23T06:08:08;12.80;67.00
80274;DHT22;69576;51.902;-8.462;2023-04-23T06:10:34;12.80;66.90
80274;DHT22;69576;51.902;-8.462;2023-04-23T06:13:00;12.80;67.00
80274;DHT22;69576;51.902;-8.462;2023-04-23T06:15:26;12.80;67.10
80274;DHT22;69576;51.902;-8.462;2023-04-23T06:17:53;12.80;67.10
80274;DHT22;69576;51.902;-8.462;2023-04-23T06:20:19;12.80;66.90
80274;DHT22;69576;51.902;-8.462;2023-04-23T06:22:44;12.70;66.80
80274;DHT22;69576;51.902;-8.462;2023-04-23T06:25:10;12.70;66.70
80274;DHT22;69576;51.902;-8.462;2023-04-23T06:27:36;12.70;66.80
80274;DHT22;69576;51.902;-8.462;2023-04-23T06:30:02;12.70;66.70
80274;DHT22;69576;51.902;-8.462;2023-04-23T06:32:30;12.70;67.00
80274;DHT22;69576;51.902;-8.462;2023-04-23T06:34:56;12.70;66.90
80274;DHT22;69576;51.902;-8.462;2023-04-23T06:37:22;12.80;67.00
80274;DHT22;69576;51.902;-8.462;2023-04-23T06:39:47;12.80;66.70
80274;DHT22;69576;51.902;-8.462;2023-04-23T06:42:13;12.80;66.80
80274;DHT22;69576;51.902;-8.462;2023-04-23T06:44:41;12.80;66.70
80274;DHT22;69576;51.902;-8.462;2023-04-23T06:47:07;12.80;66.80
80274;DHT22;69576;51.902;-8.462;2023-04-23T06:49:33;12.80;67.00
80274;DHT22;69576;51.902;-8.462;2023-04-23T06:51:59;12.90;67.00
80274;DHT22;69576;51.902;-8.462;2023-04-23T06:54:25;12.80;66.60
80274;DHT22;69576;51.902;-8.462;2023-04-23T06:56:51;12.90;66.50
80274;DHT22;69576;51.902;-8.462;2023-04-23T06:59:16;12.90;66.90
80274;DHT22;69576;51.902;-8.462;2023-04-23T07:01:43;13.00;67.00
80274;DHT22;69576;51.902;-8.462;2023-04-23T07:04:11;13.00;67.10
80274;DHT22;69576;51.902;-8.462;2023-04-23T07:06:37;13.10;66.70
80274;DHT22;69576;51.902;-8.462;2023-04-23T07:09:03;13.10;66.60
80274;DHT22;69576;51.902;-8.462;2023-04-23T07:11:29;13.10;66.30
80274;DHT22;69576;51.902;-8.462;2023-04-23T07:13:59;13.10;66.70
80274;DHT22;69576;51.902;-8.462;2023-04-23T07:16:27;13.20;66.50
80274;DHT22;69576;51.902;-8.462;2023-04-23T07:18:59;13.30;66.40
80274;DHT22;69576;51.902;-8.462;2023-04-23T07:21:26;13.30;66.30
80274;DHT22;69576;51.902;-8.462;2023-04-23T07:23:55;13.40;65.90
80274;DHT22;69576;51.902;-8.462;2023-04-23T07:26:21;13.50;66.10
80274;DHT22;69576;51.902;-8.462;2023-04-23T07:28:47;13.50;65.90
80274;DHT22;69576;51.902;-8.462;2023-04-23T07:31:13;13.50;65.60
80274;DHT22;69576;51.902;-8.462;2023-04-23T07:33:39;13.60;65.50
80274;DHT22;69576;51.902;-8.462;2023-04-23T07:36:05;13.60;65.40
80274;DHT22;69576;51.902;-8.462;2023-04-23T07:38:30;13.70;65.30
80274;DHT22;69576;51.902;-8.462;2023-04-23T07:40:56;13.70;65.20
80274;DHT22;69576;51.902;-8.462;2023-04-23T07:43:22;13.70;65.20
80274;DHT22;69576;51.902;-8.462;2023-04-23T07:45:48;13.80;65.10
80274;DHT22;69576;51.902;-8.462;2023-04-23T07:48:16;13.90;65.20
80274;DHT22;69576;51.902;-8.462;2023-04-23T07:50:42;13.90;65.00
80274;DHT22;69576;51.902;-8.462;2023-04-23T07:53:08;13.90;64.80
80274;DHT22;69576;51.902;-8.462;2023-04-23T07:55:33;13.90;64.90
80274;DHT22;69576;51.902;-8.462;2023-04-23T07:57:59;14.00;64.60
80274;DHT22;69576;51.902;-8.462;2023-04-23T08:00:27;14.00;65.00
80274;DHT22;69576;51.902;-8.462;2023-04-23T08:02:53;14.20;64.90
80274;DHT22;69576;51.902;-8.462;2023-04-23T08:05:19;14.30;64.60
80274;DHT22;69576;51.902;-8.462;2023-04-23T08:07:45;14.30;64.40
80274;DHT22;69576;51.902;-8.462;2023-04-23T08:10:10;14.30;64.00
80274;DHT22;69576;51.902;-8.462;2023-04-23T08:12:39;14.30;64.00
80274;DHT22;69576;51.902;-8.462;2023-04-23T08:15:05;14.30;64.10
80274;DHT22;69576;51.902;-8.462;2023-04-23T08:17:31;14.30;64.20
80274;DHT22;69576;51.902;-8.462;2023-04-23T08:19:59;14.30;64.50
80274;DHT22;69576;51.902;-8.462;2023-04-23T08:22:27;14.40;64.40
80274;DHT22;69576;51.902;-8.462;2023-04-23T08:24:53;14.40;64.00
80274;DHT22;69576;51.902;-8.462;2023-04-23T08:27:19;14.40;63.90
80274;DHT22;69576;51.902;-8.462;2023-04-23T08:29:47;14.40;64.00
80274;DHT22;69576;51.902;-8.462;2023-04-23T08:32:13;14.50;63.90
80274;DHT22;69576;51.902;-8.462;2023-04-23T08:34:41;14.50;63.70
80274;DHT22;69576;51.902;-8.462;2023-04-23T08:37:07;14.40;63.60
80274;DHT22;69576;51.902;-8.462;2023-04-23T08:39:33;14.40;63.70
80274;DHT22;69576;51.902;-8.462;2023-04-23T08:42:17;14.40;63.50
80274;DHT22;69576;51.902;-8.462;2023-04-23T08:44:45;14.30;63.40
80274;DHT22;69576;51.902;-8.462;2023-04-23T08:47:16;14.30;63.50
80274;DHT22;69576;51.902;-8.462;2023-04-23T08:49:44;14.30;63.10
80274;DHT22;69576;51.902;-8.462;2023-04-23T08:52:22;14.30;63.00
80274;DHT22;69576;51.902;-8.462;2023-04-23T08:54:52;14.30;62.80
80274;DHT22;69576;51.902;-8.462;2023-04-23T08:57:21;14.30;62.80
80274;DHT22;69576;51.902;-8.462;2023-04-23T08:59:47;14.30;62.90
80274;DHT22;69576;51.902;-8.462;2023-04-23T09:02:13;14.20;62.90
80274;DHT22;69576;51.902;-8.462;2023-04-23T09:04:41;14.20;63.00
80274;DHT22;69576;51.902;-8.462;2023-04-23T09:07:07;14.20;63.00
80274;DHT22;69576;51.902;-8.462;2023-04-23T09:09:36;14.20;63.30
80274;DHT22;69576;51.902;-8.462;2023-04-23T09:12:06;14.20;63.30
80274;DHT22;69576;51.902;-8.462;2023-04-23T09:14:33;14.20;63.50
80274;DHT22;69576;51.902;-8.462;2023-04-23T09:16:59;14.30;63.40
80274;DHT22;69576;51.902;-8.462;2023-04-23T09:19:28;14.50;63.60
80274;DHT22;69576;51.902;-8.462;2023-04-23T09:21:56;14.80;63.70
80274;DHT22;69576;51.902;-8.462;2023-04-23T09:24:23;15.10;63.90
80274;DHT22;69576;51.902;-8.462;2023-04-23T09:26:50;15.50;63.80
80274;DHT22;69576;51.902;-8.462;2023-04-23T09:29:20;15.80;63.10
80274;DHT22;69576;51.902;-8.462;2023-04-23T09:31:50;16.10;62.80
80274;DHT22;69576;51.902;-8.462;2023-04-23T09:34:23;16.30;62.20
80274;DHT22;69576;51.902;-8.462;2023-04-23T09:36:51;16.40;62.10
80274;DHT22;69576;51.902;-8.462;2023-04-23T09:39:26;16.60;61.80
80274;DHT22;69576;51.902;-8.462;2023-04-23T09:42:04;16.80;61.20
80274;DHT22;69576;51.902;-8.462;2023-04-23T09:44:33;16.90;60.50
80274;DHT22;69576;51.902;-8.462;2023-04-23T09:47:07;16.80;60.30
80274;DHT22;69576;51.902;-8.462;2023-04-23T09:49:47;16.70;60.00
80274;DHT22;69576;51.902;-8.462;2023-04-23T09:52:16;16.50;60.10
80274;DHT22;69576;51.902;-8.462;2023-04-23T09:54:42;16.40;60.30
80274;DHT22;69576;51.902;-8.462;2023-04-23T09:57:13;16.10;60.50
80274;DHT22;69576;51.902;-8.462;2023-04-23T09:59:39;16.00;60.70
80274;DHT22;69576;51.902;-8.462;2023-04-23T10:02:05;15.90;60.90
80274;DHT22;69576;51.902;-8.462;2023-04-23T10:04:32;15.80;60.90
80274;DHT22;69576;51.902;-8.462;2023-04-23T10:07:00;15.70;61.00
80274;DHT22;69576;51.902;-8.462;2023-04-23T10:09:28;15.70;61.10
80274;DHT22;69576;51.902;-8.462;2023-04-23T10:11:58;15.80;61.30
80274;DHT22;69576;51.902;-8.462;2023-04-23T10:14:25;16.00;61.30
80274;DHT22;69576;51.902;-8.462;2023-04-23T10:16:56;16.20;61.20
80274;DHT22;69576;51.902;-8.462;2023-04-23T10:19:24;16.40;61.10
80274;DHT22;69576;51.902;-8.462;2023-04-23T10:21:59;16.50;61.20
80274;DHT22;69576;51.902;-8.462;2023-04-23T10:24:32;16.50;60.80
80274;DHT22;69576;51.902;-8.462;2023-04-23T10:27:02;16.40;60.60
80274;DHT22;69576;51.902;-8.462;2023-04-23T10:29:32;16.40;60.60
80274;DHT22;69576;51.902;-8.462;2023-04-23T10:32:00;16.20;60.80
80274;DHT22;69576;51.902;-8.462;2023-04-23T10:34:27;16.10;60.70
80274;DHT22;69576;51.902;-8.462;2023-04-23T10:36:55;16.00;60.80
80274;DHT22;69576;51.902;-8.462;2023-04-23T10:39:26;16.00;60.90
80274;DHT22;69576;51.902;-8.462;2023-04-23T10:41:53;16.00;61.20
80274;DHT22;69576;51.902;-8.462;2023-04-23T10:44:20;16.00;61.30
80274;DHT22;69576;51.902;-8.462;2023-04-23T10:46:54;16.00;61.40
80274;DHT22;69576;51.902;-8.462;2023-04-23T10:49:30;16.00;61.20
80274;DHT22;69576;51.902;-8.462;2023-04-23T10:52:08;15.90;61.20
80274;DHT22;69576;51.902;-8.462;2023-04-23T10:54:34;15.80;61.30
80274;DHT22;69576;51.902;-8.462;2023-04-23T10:57:05;15.80;61.30
80274;DHT22;69576;51.902;-8.462;2023-04-23T10:59:38;15.70;61.40
80274;DHT22;69576;51.902;-8.462;2023-04-23T11:02:10;15.60;61.50
80274;DHT22;69576;51.902;-8.462;2023-04-23T11:04:41;15.60;61.50
80274;DHT22;69576;51.902;-8.462;2023-04-23T11:07:08;15.60;61.60
80274;DHT22;69576;51.902;-8.462;2023-04-23T11:09:47;15.60;61.80
80274;DHT22;69576;51.902;-8.462;2023-04-23T11:14:54;15.60;61.90
80274;DHT22;69576;51.902;-8.462;2023-04-23T11:20:19;15.80;62.10
80274;DHT22;69576;51.902;-8.462;2023-04-23T11:22:47;15.80;62.00
80274;DHT22;69576;51.902;-8.462;2023-04-23T11:25:18;15.80;62.10
80274;DHT22;69576;51.902;-8.462;2023-04-23T11:27:44;15.90;62.10
80274;DHT22;69576;51.902;-8.462;2023-04-23T11:30:14;15.90;62.10
80274;DHT22;69576;51.902;-8.462;2023-04-23T11:32:43;16.00;62.10
80274;DHT22;69576;51.902;-8.462;2023-04-23T11:35:09;16.00;62.00
80274;DHT22;69576;51.902;-8.462;2023-04-23T11:37:38;16.20;61.90
80274;DHT22;69576;51.902;-8.462;2023-04-23T11:40:08;16.20;61.80
80274;DHT22;69576;51.902;-8.462;2023-04-23T11:42:53;16.20;62.00
80274;DHT22;69576;51.902;-8.462;2023-04-23T11:45:24;16.30;61.90
80274;DHT22;69576;51.902;-8.462;2023-04-23T11:47:51;16.30;61.80
80274;DHT22;69576;51.902;-8.462;2023-04-23T11:50:30;16.40;61.80
80274;DHT22;69576;51.902;-8.462;2023-04-23T11:53:07;16.40;61.70
80274;DHT22;69576;51.902;-8.462;2023-04-23T11:55:33;16.40;61.80
80274;DHT22;69576;51.902;-8.462;2023-04-23T11:58:02;16.40;61.80
80274;DHT22;69576;51.902;-8.462;2023-04-23T12:00:30;16.50;61.60
80274;DHT22;69576;51.902;-8.462;2023-04-23T12:03:00;16.60;61.50
80274;DHT22;69576;51.902;-8.462;2023-04-23T12:05:39;16.60;61.40
80274;DHT22;69576;51.902;-8.462;2023-04-23T12:08:14;16.60;61.10
80274;DHT22;69576;51.902;-8.462;2023-04-23T12:11:01;16.60;60.90
80274;DHT22;69576;51.902;-8.462;2023-04-23T12:13:28;16.60;60.70
80274;DHT22;69576;51.902;-8.462;2023-04-23T12:18:34;16.50;60.60
80274;DHT22;69576;51.902;-8.462;2023-04-23T12:21:08;16.50;60.60
80274;DHT22;69576;51.902;-8.462;2023-04-23T12:23:35;16.50;60.60
80274;DHT22;69576;51.902;-8.462;2023-04-23T12:26:02;16.50;60.60
80274;DHT22;69576;51.902;-8.462;2023-04-23T12:28:29;16.40;60.40
80274;DHT22;69576;51.902;-8.462;2023-04-23T12:31:00;16.40;60.50
80274;DHT22;69576;51.902;-8.462;2023-04-23T12:33:30;16.40;60.60
80274;DHT22;69576;51.902;-8.462;2023-04-23T12:35:58;16.40;60.60
80274;DHT22;69576;51.902;-8.462;2023-04-23T12:38:28;16.30;60.70
80274;DHT22;69576;51.902;-8.462;2023-04-23T12:40:56;16.30;60.70
80274;DHT22;69576;51.902;-8.462;2023-04-23T12:43:23;16.20;60.70
80274;DHT22;69576;51.902;-8.462;2023-04-23T12:45:49;16.10;60.70
80274;DHT22;69576;51.902;-8.462;2023-04-23T12:48:15;16.10;60.80
80274;DHT22;69576;51.902;-8.462;2023-04-23T12:50:41;16.00;60.70
80274;DHT22;69576;51.902;-8.462;2023-04-23T12:53:07;16.00;60.80
80274;DHT22;69576;51.902;-8.462;2023-04-23T12:55:33;16.00;60.70
80274;DHT22;69576;51.902;-8.462;2023-04-23T12:57:59;16.00;60.80
80274;DHT22;69576;51.902;-8.462;2023-04-23T13:00:25;16.00;60.90
80274;DHT22;69576;51.902;-8.462;2023-04-23T13:02:51;16.00;60.80
80274;DHT22;69576;51.902;-8.462;2023-04-23T13:05:17;16.00;60.90
80274;DHT22;69576;51.902;-8.462;2023-04-23T13:07:43;16.00;60.90
80274;DHT22;69576;51.902;-8.462;2023-04-23T13:10:09;16.00;60.80
80274;DHT22;69576;51.902;-8.462;2023-04-23T13:12:35;15.90;60.90
80274;DHT22;69576;51.902;-8.462;2023-04-23T13:15:01;15.90;60.90
80274;DHT22;69576;51.902;-8.462;2023-04-23T13:17:27;15.80;60.70
80274;DHT22;69576;51.902;-8.462;2023-04-23T13:19:54;15.80;60.70
80274;DHT22;69576;51.902;-8.462;2023-04-23T13:22:22;15.80;60.70
80274;DHT22;69576;51.902;-8.462;2023-04-23T13:24:53;15.80;60.70
80274;DHT22;69576;51.902;-8.462;2023-04-23T13:27:22;15.80;60.70
80274;DHT22;69576;51.902;-8.462;2023-04-23T13:29:48;15.80;60.80
80274;DHT22;69576;51.902;-8.462;2023-04-23T13:32:16;15.80;60.90
80274;DHT22;69576;51.902;-8.462;2023-04-23T13:34:42;15.80;60.90
80274;DHT22;69576;51.902;-8.462;2023-04-23T13:37:08;15.80;61.00
80274;DHT22;69576;51.902;-8.462;2023-04-23T13:39:37;15.70;60.90
80274;DHT22;69576;51.902;-8.462;2023-04-23T13:42:03;15.60;61.00
80274;DHT22;69576;51.902;-8.462;2023-04-23T13:44:32;15.60;60.90
80274;DHT22;69576;51.902;-8.462;2023-04-23T13:46:57;15.60;60.80
80274;DHT22;69576;51.902;-8.462;2023-04-23T13:49:24;15.60;60.70
80274;DHT22;69576;51.902;-8.462;2023-04-23T13:51:51;15.60;60.70
80274;DHT22;69576;51.902;-8.462;2023-04-23T13:54:24;15.60;60.70
80274;DHT22;69576;51.902;-8.462;2023-04-23T13:56:53;15.60;60.80
80274;DHT22;69576;51.902;-8.462;2023-04-23T13:59:18;15.60;60.70
80274;DHT22;69576;51.902;-8.462;2023-04-23T14:01:44;15.60;60.70
80274;DHT22;69576;51.902;-8.462;2023-04-23T14:04:11;15.60;60.70
80274;DHT22;69576;51.902;-8.462;2023-04-23T14:06:37;15.60;60.80
80274;DHT22;69576;51.902;-8.462;2023-04-23T14:09:02;15.60;60.90
80274;DHT22;69576;51.902;-8.462;2023-04-23T14:11:29;15.50;60.80
80274;DHT22;69576;51.902;-8.462;2023-04-23T14:13:54;15.50;60.90
80274;DHT22;69576;51.902;-8.462;2023-04-23T14:16:20;15.50;60.80
80274;DHT22;69576;51.902;-8.462;2023-04-23T14:18:48;15.50;60.90
80274;DHT22;69576;51.902;-8.462;2023-04-23T14:21:14;15.50;61.20
80274;DHT22;69576;51.902;-8.462;2023-04-23T14:26:09;15.50;61.90
80274;DHT22;69576;51.902;-8.462;2023-04-23T14:28:44;15.50;61.60
80274;DHT22;69576;51.902;-8.462;2023-04-23T14:31:11;15.50;61.50
80274;DHT22;69576;51.902;-8.462;2023-04-23T14:33:37;15.50;61.50
80274;DHT22;69576;51.902;-8.462;2023-04-23T14:36:03;15.50;61.60
80274;DHT22;69576;51.902;-8.462;2023-04-23T14:38:28;15.60;61.50
80274;DHT22;69576;51.902;-8.462;2023-04-23T14:40:54;15.60;61.60
80274;DHT22;69576;51.902;-8.462;2023-04-23T14:43:22;15.60;61.60
80274;DHT22;69576;51.902;-8.462;2023-04-23T14:45:53;15.60;61.50
80274;DHT22;69576;51.902;-8.462;2023-04-23T14:48:18;15.70;61.50
80274;DHT22;69576;51.902;-8.462;2023-04-23T14:50:45;15.80;61.60
80274;DHT22;69576;51.902;-8.462;2023-04-23T14:53:10;15.80;61.00
80274;DHT22;69576;51.902;-8.462;2023-04-23T14:55:36;15.80;60.00
80274;DHT22;69576;51.902;-8.462;2023-04-23T14:58:04;15.80;59.70
80274;DHT22;69576;51.902;-8.462;2023-04-23T15:00:30;15.70;59.50
80274;DHT22;69576;51.902;-8.462;2023-04-23T15:02:58;15.60;59.20
80274;DHT22;69576;51.902;-8.462;2023-04-23T15:05:28;15.60;58.60
80274;DHT22;69576;51.902;-8.462;2023-04-23T15:07:53;15.50;58.70
80274;DHT22;69576;51.902;-8.462;2023-04-23T15:10:19;15.50;59.00
80274;DHT22;69576;51.902;-8.462;2023-04-23T15:12:53;15.40;58.60
80274;DHT22;69576;51.902;-8.462;2023-04-23T15:16:06;15.40;58.20
80274;DHT22;69576;51.902;-8.462;2023-04-23T15:18:30;15.40;57.90
80274;DHT22;69576;51.902;-8.462;2023-04-23T15:20:58;15.30;58.00
80274;DHT22;69576;51.902;-8.462;2023-04-23T15:23:26;15.40;58.70
80274;DHT22;69576;51.902;-8.462;2023-04-23T15:25:51;15.30;58.40
80274;DHT22;69576;51.902;-8.462;2023-04-23T15:28:17;15.30;58.60